createdAt,value
2023-04-28T00:03:38.826Z,13.10
2023-04-28T00:07:56.718Z,14.18
2023-04-28T00:12:14.242Z,12.27
2023-04-28T00:16:33.172Z,12.32
2023-04-28T00:20:51.040Z,10.45
2023-04-28T00:25:09.994Z,11.60
2023-04-28T00:29:30.122Z,11.73
2023-04-28T00:33:47.878Z,11.45
2023-04-28T00:38:05.456Z,11.23
2023-04-28T00:42:23.627Z,10.43
2023-04-28T00:46:42.065Z,11.05
2023-04-28T00:50:59.703Z,10.70
2023-04-28T00:55:18.959Z,10.48
2023-04-28T00:59:37.347Z,10.55
2023-04-28T01:03:55.319Z,10.48
2023-04-28T01:08:14.693Z,10.70
2023-04-28T01:12:32.338Z,9.10
2023-04-28T01:16:50.057Z,11.50
2023-04-28T01:21:07.735Z,10.00
2023-04-28T01:25:25.797Z,10.65
2023-04-28T01:29:46.242Z,10.20
2023-04-28T01:34:04.231Z,10.40
2023-04-28T01:38:21.751Z,10.73
2023-04-28T01:42:39.620Z,10.40
2023-04-28T01:46:57.155Z,11.25
2023-04-28T01:51:14.800Z,11.07
2023-04-28T01:55:32.387Z,9.68
2023-04-28T01:59:50.032Z,9.87
2023-04-28T02:04:07.757Z,9.48
2023-04-28T02:08:25.600Z,9.57
2023-04-28T02:12:43.113Z,9.43
2023-04-28T02:17:01.067Z,10.05
2023-04-28T02:21:18.112Z,8.68
2023-04-28T02:25:35.751Z,7.83
2023-04-28T02:29:53.644Z,6.32
2023-04-28T02:34:11.531Z,7.55
2023-04-28T02:38:29.327Z,7.65
2023-04-28T02:42:47.068Z,8.23
2023-04-28T02:47:04.913Z,8.10
2023-04-28T02:51:22.737Z,5.80
2023-04-28T02:55:40.781Z,7.80
2023-04-28T02:59:58.516Z,7.75
2023-04-28T03:04:17.177Z,7.70
2023-04-28T03:08:35.735Z,7.70
2023-04-28T03:12:53.398Z,8.10
2023-04-28T03:17:11.053Z,7.80
2023-04-28T03:21:29.234Z,7.18
2023-04-28T03:25:47.067Z,7.60
2023-04-28T03:30:05.530Z,7.65
2023-04-28T03:34:23.343Z,6.82
2023-04-28T03:38:41.782Z,6.53
2023-04-28T03:43:01.194Z,7.55
2023-04-28T03:47:19.749Z,8.55
2023-04-28T03:51:37.578Z,10.05
2023-04-28T03:55:55.303Z,8.02
2023-04-28T04:00:14.653Z,7.07
2023-04-28T04:04:32.050Z,8.90
2023-04-28T04:08:49.939Z,6.45
2023-04-28T04:13:07.702Z,5.60
2023-04-28T04:17:25.247Z,6.53
2023-04-28T04:21:42.954Z,7.10
2023-04-28T04:26:00.670Z,7.65
2023-04-28T04:30:18.295Z,8.85
2023-04-28T04:34:35.908Z,9.70
2023-04-28T04:38:54.623Z,9.05
2023-04-28T04:43:12.380Z,7.32
2023-04-28T04:47:30.079Z,8.13
2023-04-28T04:51:47.663Z,5.57
2023-04-28T04:56:05.919Z,6.97
2023-04-28T05:00:23.444Z,7.47
2023-04-28T05:04:41.225Z,7.70
2023-04-28T05:08:59.529Z,7.00
2023-04-28T05:13:17.266Z,5.88
2023-04-28T05:17:35.267Z,4.88
2023-04-28T05:21:55.141Z,5.30
2023-04-28T05:26:12.688Z,5.07
2023-04-28T05:30:30.666Z,5.00
2023-04-28T05:34:48.310Z,4.75
2023-04-28T05:39:05.870Z,4.35
2023-04-28T05:43:24.120Z,4.57
2023-04-28T05:47:41.757Z,4.75
2023-04-28T05:51:59.495Z,4.00
2023-04-28T05:56:17.502Z,4.22
2023-04-28T06:00:35.850Z,4.72
2023-04-28T06:09:11.347Z,3.72
2023-04-28T06:13:29.004Z,3.70
2023-04-28T06:17:46.973Z,4.93
2023-04-28T06:22:04.566Z,4.18
2023-04-28T06:26:22.792Z,3.63
2023-04-28T06:30:41.685Z,3.95
2023-04-28T06:35:00.510Z,3.80
2023-04-28T06:39:18.230Z,3.53
2023-04-28T06:43:35.773Z,3.50
2023-04-28T06:47:56.224Z,3.45
2023-04-28T06:52:15.025Z,3.28
2023-04-28T06:56:32.801Z,3.05
2023-04-28T07:00:50.928Z,3.03
2023-04-28T07:09:26.800Z,2.95
2023-04-28T07:13:46.667Z,2.63
2023-04-28T07:18:04.467Z,2.08
2023-04-28T07:22:22.838Z,2.33
2023-04-28T07:26:40.383Z,2.75
2023-04-28T07:30:58.275Z,2.20
2023-04-28T07:35:16.053Z,2.00
2023-04-28T07:39:35.266Z,2.33
2023-04-28T07:43:52.920Z,2.30
2023-04-28T07:48:12.094Z,1.67
2023-04-28T07:52:33.830Z,1.77
2023-04-28T07:56:52.265Z,2.10
2023-04-28T08:01:09.830Z,2.38
2023-04-28T08:05:27.801Z,1.70
2023-04-28T08:09:47.801Z,1.92
2023-04-28T08:14:05.479Z,1.95
2023-04-28T08:18:24.013Z,2.45
2023-04-28T08:22:42.225Z,2.00
2023-04-28T08:31:18.358Z,1.50
2023-04-28T08:35:36.267Z,1.63
2023-04-28T08:40:02.362Z,2.28
2023-04-28T08:44:20.065Z,2.08
2023-04-28T08:48:45.904Z,2.15
2023-04-28T08:53:05.087Z,1.42
2023-04-28T08:57:23.250Z,1.85
2023-04-28T09:01:44.011Z,2.20
2023-04-28T09:06:02.961Z,1.80
2023-04-28T09:10:25.927Z,2.25
2023-04-28T09:14:43.569Z,2.60
2023-04-28T09:19:01.482Z,2.38
2023-04-28T09:23:22.759Z,2.08
2023-04-28T09:27:40.555Z,2.75
2023-04-28T09:32:18.379Z,2.58
2023-04-28T09:41:01.636Z,2.25
2023-04-28T09:45:19.345Z,1.92
2023-04-28T09:49:55.981Z,2.30
2023-04-28T09:54:14.276Z,2.05
2023-04-28T09:58:33.156Z,1.75
2023-04-28T10:03:12.853Z,2.05
2023-04-28T10:07:35.199Z,1.42
2023-04-28T10:11:53.406Z,1.95
2023-04-28T10:20:30.341Z,2.60
2023-04-28T10:25:22.958Z,1.52
2023-04-28T10:29:40.865Z,1.40
2023-04-28T10:34:25.632Z,1.83
2023-04-28T10:39:11.298Z,2.25
2023-04-28T10:43:38.248Z,2.30
2023-04-28T10:48:06.746Z,2.37
2023-04-28T10:52:33.752Z,1.58
2023-04-28T10:57:18.431Z,2.53
2023-04-28T11:01:40.653Z,1.60
2023-04-28T11:06:28.917Z,1.88
2023-04-28T11:11:14.940Z,1.85
2023-04-28T11:15:33.302Z,2.83
2023-04-28T11:19:51.713Z,2.47
2023-04-28T11:24:10.841Z,1.60
2023-04-28T11:28:28.763Z,2.05
2023-04-28T11:32:50.675Z,2.00
2023-04-28T11:37:09.524Z,1.10
2023-04-28T11:41:27.588Z,1.92
2023-04-28T11:45:47.381Z,1.67
2023-04-28T11:50:05.521Z,1.33
2023-04-28T11:54:29.095Z,1.75
2023-04-28T11:58:47.245Z,1.90
2023-04-28T12:03:08.812Z,2.08
2023-04-28T12:07:26.491Z,2.05
2023-04-28T12:12:03.530Z,1.65
2023-04-28T12:16:39.573Z,1.30
2023-04-28T12:20:57.086Z,1.88
2023-04-28T12:25:17.724Z,1.80
2023-04-28T12:29:43.085Z,1.85
2023-04-28T12:34:01.042Z,1.70
2023-04-28T12:38:19.230Z,2.00
2023-04-28T12:42:37.585Z,1.73
2023-04-28T12:46:56.362Z,1.80
2023-04-28T12:51:14.029Z,1.90
2023-04-28T12:55:31.728Z,1.98
2023-04-28T12:59:49.349Z,1.38
2023-04-28T13:04:07.449Z,1.35
2023-04-28T13:08:25.249Z,1.38
2023-04-28T13:12:43.364Z,2.20
2023-04-28T13:17:01.889Z,1.73
2023-04-28T13:21:19.588Z,1.42
2023-04-28T13:25:37.172Z,1.80
2023-04-28T13:29:59.083Z,1.80
2023-04-28T13:34:17.998Z,2.05
2023-04-28T13:38:36.729Z,2.00
2023-04-28T13:42:55.120Z,1.50
2023-04-28T13:47:12.766Z,1.90
2023-04-28T13:51:33.289Z,2.97
2023-04-28T13:55:51.877Z,2.20
2023-04-28T14:00:10.557Z,1.80
2023-04-28T14:04:28.366Z,1.80
2023-04-28T14:08:46.181Z,1.90
2023-04-28T14:13:03.800Z,2.05
2023-04-28T14:17:21.926Z,1.67
2023-04-28T14:21:39.613Z,6.95
2023-04-28T14:25:58.355Z,3.35
2023-04-28T14:30:17.271Z,1.70
2023-04-28T14:34:35.570Z,2.28
2023-04-28T14:38:53.345Z,2.70
2023-04-28T14:43:11.272Z,1.20
2023-04-28T14:47:29.094Z,2.25
2023-04-28T14:51:47.236Z,2.00
2023-04-28T14:56:18.112Z,2.13
2023-04-28T15:00:37.310Z,2.35
2023-04-28T15:04:58.359Z,1.90
2023-04-28T15:09:16.124Z,2.92
2023-04-28T15:13:33.664Z,3.08
2023-04-28T15:18:10.433Z,1.65
2023-04-28T15:22:28.032Z,2.13
2023-04-28T15:26:46.320Z,1.60
2023-04-28T15:31:05.207Z,6.90
2023-04-28T15:35:23.228Z,1.90
2023-04-28T15:39:40.816Z,1.10
2023-04-28T15:43:58.448Z,1.50
2023-04-28T15:48:16.601Z,4.97
2023-04-28T15:52:34.254Z,5.20
2023-04-28T15:56:52.270Z,2.60
2023-04-28T16:01:10.069Z,2.88
2023-04-28T16:09:45.025Z,4.00
2023-04-28T16:14:02.771Z,6.50
2023-04-28T16:18:20.334Z,14.23
2023-04-28T16:22:40.208Z,2.25
2023-04-28T16:26:57.729Z,1.80
2023-04-28T16:31:15.469Z,1.40
2023-04-28T16:35:33.026Z,1.45
2023-04-28T16:39:53.067Z,1.48
2023-04-28T16:44:11.224Z,1.67
2023-04-28T16:48:29.123Z,1.90
2023-04-28T16:52:46.950Z,2.60
2023-04-28T16:57:04.686Z,1.75
2023-04-28T17:01:22.991Z,2.08
2023-04-28T17:05:40.666Z,1.90
2023-04-28T17:09:58.932Z,1.95
2023-04-28T17:18:34.480Z,2.15
2023-04-28T17:22:52.701Z,2.30
2023-04-28T17:27:11.959Z,2.17
2023-04-28T17:31:30.023Z,1.70
2023-04-28T17:40:05.757Z,1.90
2023-04-28T17:44:23.526Z,1.75
2023-04-28T17:48:42.753Z,2.80
2023-04-28T17:53:00.400Z,44.50
2023-04-28T17:57:18.710Z,30.92
2023-04-28T18:01:36.441Z,11.30
2023-04-28T18:05:54.326Z,8.48
2023-04-28T18:10:12.045Z,16.05
2023-04-28T18:14:30.330Z,12.02
2023-04-28T18:18:48.781Z,14.18
2023-04-28T18:23:07.153Z,13.98
2023-04-28T18:27:24.783Z,7.18
2023-04-28T18:31:42.799Z,8.82
2023-04-28T18:36:07.655Z,13.93
2023-04-28T18:40:25.415Z,12.52
2023-04-28T18:44:43.734Z,7.50
2023-04-28T18:49:03.496Z,5.05
2023-04-28T18:53:21.424Z,6.25
2023-04-28T18:57:40.752Z,5.80
2023-04-28T19:01:58.785Z,7.13
2023-04-28T19:06:18.063Z,6.20
2023-04-28T19:10:36.785Z,7.68
2023-04-28T19:14:54.911Z,4.47
2023-04-28T19:23:33.097Z,4.13
2023-04-28T19:27:53.269Z,5.15
2023-04-28T19:32:12.621Z,3.60
2023-04-28T19:36:30.215Z,8.27
2023-04-28T19:40:47.966Z,5.63
2023-04-28T19:45:07.508Z,8.30
2023-04-28T19:49:28.702Z,6.93
2023-04-28T19:53:47.377Z,11.05
2023-04-28T19:58:06.497Z,7.57
2023-04-28T20:02:24.610Z,6.70
2023-04-28T20:06:45.606Z,12.63
2023-04-28T20:11:03.939Z,12.43
2023-04-28T20:15:21.923Z,8.88
2023-04-28T20:19:39.716Z,15.35
2023-04-28T20:23:57.666Z,9.10
2023-04-28T20:28:18.412Z,13.70
2023-04-28T20:32:37.131Z,8.50
2023-04-28T20:36:55.931Z,4.40
2023-04-28T20:41:13.901Z,3.92
2023-04-28T20:45:32.403Z,3.75
2023-04-28T20:49:50.435Z,4.05
2023-04-28T20:54:08.841Z,4.75
2023-04-28T20:58:26.528Z,4.50
2023-04-28T21:02:44.277Z,5.85
2023-04-28T21:07:02.287Z,3.83
2023-04-28T21:11:19.911Z,4.95
2023-04-28T21:15:39.280Z,5.68
2023-04-28T21:19:57.597Z,5.53
2023-04-28T21:24:15.413Z,5.13
2023-04-28T21:28:34.403Z,5.30
2023-04-28T21:32:52.169Z,4.75
2023-04-28T21:37:09.713Z,4.95
2023-04-28T21:41:27.435Z,4.83
2023-04-28T21:45:45.129Z,6.78
2023-04-28T21:50:02.898Z,7.47
2023-04-28T21:54:21.316Z,6.43
2023-04-28T21:58:39.557Z,9.25
2023-04-28T22:02:58.140Z,7.45
2023-04-28T22:07:16.546Z,7.38
2023-04-28T22:11:34.117Z,7.03
2023-04-28T22:15:52.896Z,7.68
2023-04-28T22:20:10.973Z,10.43
2023-04-28T22:24:28.824Z,7.88
2023-04-28T22:28:46.454Z,6.95
2023-04-28T22:33:04.166Z,8.38
2023-04-28T22:37:21.752Z,8.15
2023-04-28T22:41:39.530Z,7.47
2023-04-28T22:46:00.138Z,6.63
2023-04-28T22:50:18.299Z,5.72
2023-04-28T22:54:39.061Z,4.88
2023-04-28T22:58:58.530Z,5.18
2023-04-28T23:03:16.366Z,5.03
2023-04-28T23:11:51.826Z,5.15
2023-04-28T23:16:09.697Z,5.20
2023-04-28T23:20:27.454Z,5.00
2023-04-28T23:24:45.465Z,5.35
2023-04-28T23:29:03.232Z,5.05
2023-04-28T23:33:20.958Z,6.38
2023-04-28T23:37:38.701Z,6.57
2023-04-28T23:41:56.427Z,6.50
2023-04-28T23:46:14.641Z,5.95
2023-04-28T23:54:49.850Z,4.83
2023-04-28T23:59:08.524Z,5.32
